Time;durP1;ratioP1;P1;durP2;ratioP2;P2;SDS_P1;SDS_P2;PMS_P1;PMS_P2;Temp;Humidity;BMP_temperature;BMP_pressure;BME280_temperature;BME280_humidity;BME280_pressure;Samples;Min_cycle;Max_cycle;Signal;HPM_P1;HPM_P2
2022/03/03 00:00:55;;;;;;;23.58;10.20;;;;;;;;;;7324063;19;154245;-16
2022/03/03 00:03:27;;;;;;;22.42;9.30;;;;;;;;;;7321138;19;153817;-16
2022/03/03 00:06:01;;;;;;;19.98;9.40;;;;;;;;;;7321599;19;162171;-16
2022/03/03 00:08:33;;;;;;;23.60;9.27;;;;;;;;;;7332679;19;162728;-12
2022/03/03 00:11:05;;;;;;;18.70;8.13;;;;;;;;;;7334017;19;153963;-24
2022/03/03 00:13:37;;;;;;;21.00;9.90;;;;;;;;;;7328200;19;153613;-14
2022/03/03 00:16:11;;;;;;;22.40;9.30;;;;;;;;;;7328241;19;161841;-14
2022/03/03 00:18:43;;;;;;;22.88;9.55;;;;;;;;;;7332072;19;162410;-17
2022/03/03 00:21:18;;;;;;;20.23;10.13;;;;;;;;;;7332526;19;154601;-14
2022/03/03 00:23:50;;;;;;;24.40;8.13;;;;;;;;;;7331925;19;153870;-15
2022/03/03 00:26:22;;;;;;;23.90;8.70;;;;;;;;;;7329649;19;161996;-16
2022/03/03 00:28:53;;;;;;;19.08;8.43;;;;;;;;;;7329872;19;162562;-14
2022/03/03 00:31:25;;;;;;;19.38;9.38;;;;;;;;;;7334578;19;154005;-15
2022/03/03 00:33:57;;;;;;;20.25;8.68;;;;;;;;;;7334667;19;153500;-15
2022/03/03 00:36:31;;;;;;;23.48;9.10;;;;;;;;;;7326999;19;161958;-16
2022/03/03 00:39:02;;;;;;;17.25;8.05;;;;;;;;;;7326545;19;162386;-15
2022/03/03 00:41:33;;;;;;;17.58;7.97;;;;;;;;;;7329950;19;154043;-15
2022/03/03 00:44:06;;;;;;;18.33;8.35;;;;;;;;;;7330683;19;153617;-15
2022/03/03 00:46:37;;;;;;;16.87;8.47;;;;;;;;;;7331567;19;162106;-16
2022/03/03 00:49:09;;;;;;;20.23;8.32;;;;;;;;;;7331486;19;162335;-15
2022/03/03 00:51:43;;;;;;;10.98;5.60;;;;;;;;;;7330167;19;154037;-15
2022/03/03 00:54:14;;;;;;;10.40;5.72;;;;;;;;;;7331960;19;153512;-14
2022/03/03 00:56:46;;;;;;;12.00;6.10;;;;;;;;;;7331468;19;161913;-13
2022/03/03 13:35:45;;;;;;;1.50;1.40;;;;;;;;;;7369883;19;132657;-14
2022/03/03 13:38:17;;;;;;;1.50;1.40;;;;;;;;;;7364665;19;153577;-13
2022/03/03 13:40:49;;;;;;;3.90;1.85;;;;;;;;;;7364583;19;161807;-14
2022/03/03 13:43:27;;;;;;;2.15;1.50;;;;;;;;;;7363825;19;162519;-13
2022/03/03 13:46:00;;;;;;;1.40;1.30;;;;;;;;;;7364771;19;154017;-13
2022/03/03 13:48:35;;;;;;;1.30;1.20;;;;;;;;;;7364589;19;153651;-14
2022/03/03 13:51:09;;;;;;;2.47;1.30;;;;;;;;;;7364321;19;161949;-15
2022/03/03 13:53:57;;;;;;;2.20;1.52;;;;;;;;;;7364018;19;162335;-14
2022/03/03 13:56:29;;;;;;;1.38;1.27;;;;;;;;;;7366382;19;153822;-15
2022/03/03 13:59:09;;;;;;;2.17;1.20;;;;;;;;;;7364134;19;153719;-14
2022/03/03 14:01:42;;;;;;;1.30;1.20;;;;;;;;;;7363863;19;161979;-14
2022/03/03 14:04:14;;;;;;;3.17;1.30;;;;;;;;;;7361405;19;162639;-16
2022/03/03 14:06:48;;;;;;;2.30;1.33;;;;;;;;;;7364232;19;154174;-14
2022/03/03 14:09:26;;;;;;;3.20;1.50;;;;;;;;;;7364157;19;153581;-14
2022/03/03 14:12:12;;;;;;;2.47;1.50;;;;;;;;;;7365704;19;161857;-15
2022/03/03 14:14:47;;;;;;;2.03;1.50;;;;;;;;;;7363629;19;162491;-15
2022/03/03 14:17:19;;;;;;;3.80;2.70;;;;;;;;;;7363422;19;153885;-14
2022/03/03 14:19:50;;;;;;;27.35;12.80;;;;;;;;;;7363221;19;153287;-13
2022/03/03 14:22:27;;;;;;;13.48;7.53;;;;;;;;;;7363256;19;161961;-13
2022/03/03 14:24:58;;;;;;;24.50;10.88;;;;;;;;;;7361437;19;162375;-15
2022/03/03 14:27:29;;;;;;;7.95;4.50;;;;;;;;;;7363537;19;153990;-15
2022/03/03 14:30:01;;;;;;;7.20;2.83;;;;;;;;;;7363468;19;153566;-15
2022/03/03 14:32:34;;;;;;;3.38;2.60;;;;;;;;;;7363086;19;162115;-12
2022/03/03 14:35:08;;;;;;;4.35;2.95;;;;;;;;;;7348797;19;162497;-15
2022/03/03 14:37:43;;;;;;;6.63;3.08;;;;;;;;;;7334780;19;153881;-15
2022/03/03 14:40:15;;;;;;;32.53;14.45;;;;;;;;;;7334419;19;153572;-14
2022/03/03 14:42:47;;;;;;;58.42;26.90;;;;;;;;;;7333886;19;161793;-13
2022/03/03 14:45:18;;;;;;;65.95;26.30;;;;;;;;;;7331809;19;162415;-13
2022/03/03 14:47:49;;;;;;;60.03;25.35;;;;;;;;;;7332857;19;153903;-13
2022/03/03 14:50:25;;;;;;;55.00;25.38;;;;;;;;;;7332825;19;154041;-14
2022/03/03 14:52:59;;;;;;;52.75;21.80;;;;;;;;;;7333556;19;162142;-13
2022/03/03 14:55:52;;;;;;;44.38;20.63;;;;;;;;;;7333545;19;162415;-14
2022/03/03 14:58:23;;;;;;;43.60;18.67;;;;;;;;;;7333819;19;153912;-14
2022/03/03 15:00:56;;;;;;;45.92;17.90;;;;;;;;;;7333501;19;153535;-14
2022/03/03 15:03:27;;;;;;;35.47;17.55;;;;;;;;;;7333004;19;161954;-16
2022/03/03 15:05:58;;;;;;;38.15;17.20;;;;;;;;;;7330786;19;162580;-13
2022/03/03 15:08:32;;;;;;;33.13;17.10;;;;;;;;;;7333360;19;153885;-14
2022/03/03 15:11:04;;;;;;;35.28;16.35;;;;;;;;;;7333618;19;153790;-14
2022/03/03 15:13:35;;;;;;;32.83;16.25;;;;;;;;;;7333036;19;162083;-14
2022/03/03 15:16:07;;;;;;;34.00;15.85;;;;;;;;;;7332974;19;162265;-14
2022/03/03 15:18:38;;;;;;;37.33;14.93;;;;;;;;;;7333202;19;153936;-14
2022/03/03 15:21:10;;;;;;;29.73;14.93;;;;;;;;;;7333397;19;153611;-14
2022/03/03 15:23:43;;;;;;;31.77;15.63;;;;;;;;;;7333049;19;162002;-14
2022/03/03 15:26:15;;;;;;;30.75;15.48;;;;;;;;;;7330319;19;162809;-14
2022/03/03 15:28:46;;;;;;;29.50;14.98;;;;;;;;;;7333460;19;153994;-13
2022/03/03 15:31:17;;;;;;;31.52;13.45;;;;;;;;;;7333049;19;153841;-15
2022/03/03 15:36:47;;;;;;;27.35;13.40;;;;;;;;;;7330453;19;162381;-15
2022/03/03 15:39:23;;;;;;;27.70;12.95;;;;;;;;;;7332816;19;154211;-14
2022/03/03 15:41:59;;;;;;;25.67;12.15;;;;;;;;;;7332941;19;153708;-13
2022/03/03 15:44:32;;;;;;;28.65;14.13;;;;;;;;;;7332138;19;161548;-14
2022/03/03 15:47:03;;;;;;;31.33;13.25;;;;;;;;;;7330473;19;162437;-13
2022/03/03 15:49:36;;;;;;;24.95;12.70;;;;;;;;;;7333020;19;153931;-14
2022/03/03 15:52:08;;;;;;;23.50;11.70;;;;;;;;;;7331658;19;153397;-14
2022/03/03 15:54:42;;;;;;;;;;;;;;;;;;7332682;19;161905;-14
2022/03/03 15:57:15;;;;;;;24.00;10.82;;;;;;;;;;7332305;19;162650;-14
2022/03/03 15:59:49;;;;;;;21.77;10.65;;;;;;;;;;7332108;19;153999;-14
2022/03/03 16:02:20;;;;;;;17.88;10.18;;;;;;;;;;7332291;19;153741;-14
2022/03/03 16:04:52;;;;;;;21.15;10.52;;;;;;;;;;7330186;19;162020;-14
2022/03/03 16:07:23;;;;;;;21.85;11.00;;;;;;;;;;7331713;19;162350;-14
2022/03/03 16:09:56;;;;;;;21.38;10.50;;;;;;;;;;7331644;19;154170;-14
2022/03/03 16:12:28;;;;;;;19.67;10.65;;;;;;;;;;7331751;19;153499;-14
2022/03/03 16:14:59;;;;;;;18.15;9.45;;;;;;;;;;7331394;19;161851;-14
2022/03/03 16:17:46;;;;;;;17.67;9.90;;;;;;;;;;7331587;19;162360;-14
2022/03/03 16:20:17;;;;;;;19.42;9.80;;;;;;;;;;7331912;19;154135;-14
2022/03/03 16:22:48;;;;;;;21.63;10.52;;;;;;;;;;7331443;19;153853;-14
2022/03/03 16:25:22;;;;;;;19.52;8.98;;;;;;;;;;7330281;19;161801;-14
2022/03/03 16:27:54;;;;;;;15.30;9.02;;;;;;;;;;7331310;19;162580;-15
2022/03/03 16:30:26;;;;;;;13.25;8.15;;;;;;;;;;7331506;19;154071;-15
2022/03/03 16:32:57;;;;;;;14.87;8.10;;;;;;;;;;7331745;19;153468;-15
2022/03/03 16:35:29;;;;;;;15.05;8.77;;;;;;;;;;7326866;19;161959;-15
2022/03/03 16:38:00;;;;;;;15.52;8.20;;;;;;;;;;7331024;19;162454;-14
2022/03/03 16:40:34;;;;;;;16.92;8.43;;;;;;;;;;7331373;19;153920;-14
2022/03/03 16:43:06;;;;;;;17.88;8.75;;;;;;;;;;7331124;19;153600;-14
2022/03/03 16:45:37;;;;;;;17.23;8.95;;;;;;;;;;7329766;19;161910;-15
2022/03/03 16:48:08;;;;;;;16.63;8.10;;;;;;;;;;7330666;19;162374;-14
2022/03/03 16:50:39;;;;;;;18.23;8.57;;;;;;;;;;7331007;19;154118;-15
2022/03/03 16:53:11;;;;;;;12.10;7.10;;;;;;;;;;7330884;19;153636;-15
2022/03/03 16:55:45;;;;;;;15.45;7.32;;;;;;;;;;7330413;19;162154;-15
2022/03/03 16:58:16;;;;;;;14.80;7.50;;;;;;;;;;7329588;19;162487;-14
2022/03/03 17:00:47;;;;;;;15.27;7.32;;;;;;;;;;7330953;19;154003;-14
2022/03/03 17:03:19;;;;;;;15.02;6.78;;;;;;;;;;7330699;19;153579;-15
2022/03/03 17:05:51;;;;;;;16.40;6.88;;;;;;;;;;7329058;19;161821;-13
2022/03/03 17:08:23;;;;;;;11.98;6.13;;;;;;;;;;7329985;19;162387;-14
2022/03/03 17:10:57;;;;;;;12.98;6.75;;;;;;;;;;7330245;19;154065;-14
2022/03/03 17:13:29;;;;;;;13.82;7.15;;;;;;;;;;7330182;19;153831;-14
2022/03/03 17:16:02;;;;;;;13.68;6.85;;;;;;;;;;7329964;19;161977;-14
2022/03/03 17:18:33;;;;;;;11.93;6.45;;;;;;;;;;7328418;19;162717;-15
2022/03/03 17:21:05;;;;;;;13.02;6.93;;;;;;;;;;7330084;19;153714;-15
2022/03/03 17:23:36;;;;;;;10.10;6.70;;;;;;;;;;7328736;19;153658;-16
2022/03/03 17:26:11;;;;;;;11.88;6.18;;;;;;;;;;7328282;19;162107;-14
2022/03/03 17:28:43;;;;;;;12.77;6.18;;;;;;;;;;7329491;19;162374;-15
2022/03/03 17:31:14;;;;;;;11.73;5.47;;;;;;;;;;7329860;19;154075;-15
2022/03/03 17:33:46;;;;;;;11.90;6.20;;;;;;;;;;7327453;19;153517;-14
2022/03/03 17:36:18;;;;;;;11.13;5.95;;;;;;;;;;7329068;19;161972;-14
2022/03/03 17:38:49;;;;;;;13.03;6.13;;;;;;;;;;7328759;19;162346;-15
2022/03/03 17:41:23;;;;;;;10.07;5.35;;;;;;;;;;7329128;19;154033;-14
2022/03/03 17:43:54;;;;;;;11.55;6.35;;;;;;;;;;7328949;19;153799;-14
2022/03/03 17:46:26;;;;;;;12.50;5.82;;;;;;;;;;7327619;19;162103;-14
2022/03/03 17:48:57;;;;;;;11.27;5.45;;;;;;;;;;7328590;19;162624;-13
2022/03/03 17:51:28;;;;;;;9.93;5.88;;;;;;;;;;7329152;19;154171;-14
2022/03/03 17:54:00;;;;;;;8.00;4.38;;;;;;;;;;7328802;19;153733;-15
2022/03/03 17:56:34;;;;;;;12.18;5.43;;;;;;;;;;7328235;19;162000;-14
2022/03/03 17:59:05;;;;;;;7.60;4.60;;;;;;;;;;7328437;19;162351;-15
2022/03/03 18:01:38;;;;;;;10.23;5.65;;;;;;;;;;7328822;19;153956;-15
2022/03/03 18:04:10;;;;;;;7.95;4.32;;;;;;;;;;7328534;19;153560;-14
2022/03/03 18:06:42;;;;;;;7.20;4.65;;;;;;;;;;7327146;19;161860;-15
2022/03/03 18:09:13;;;;;;;8.90;4.63;;;;;;;;;;7327876;19;162659;-13
2022/03/03 18:11:47;;;;;;;8.73;5.20;;;;;;;;;;7334690;19;154771;-14
2022/03/03 18:14:19;;;;;;;8.32;4.85;;;;;;;;;;7335241;19;153610;-13
2022/03/03 18:16:50;;;;;;;7.68;4.20;;;;;;;;;;7334957;19;161802;-14
2022/03/03 18:19:22;;;;;;;8.52;4.38;;;;;;;;;;7334663;19;162597;-14
2022/03/03 18:21:53;;;;;;;8.02;4.78;;;;;;;;;;7335075;19;153979;-14
2022/03/03 18:24:24;;;;;;;8.32;4.25;;;;;;;;;;7335062;19;153920;-13
2022/03/03 18:26:59;;;;;;;9.25;4.10;;;;;;;;;;7333918;19;161961;-15
2022/03/03 18:29:30;;;;;;;7.50;4.20;;;;;;;;;;7333582;19;162580;-14
2022/03/03 18:32:01;;;;;;;6.55;3.90;;;;;;;;;;7334753;19;153982;-14
2022/03/03 18:34:34;;;;;;;10.32;4.70;;;;;;;;;;7333279;19;153476;-14
2022/03/03 18:37:06;;;;;;;12.95;4.95;;;;;;;;;;7334525;19;161878;-14
2022/03/03 18:39:37;;;;;;;7.10;3.97;;;;;;;;;;7333204;19;162510;-15
2022/03/03 18:42:12;;;;;;;6.45;4.22;;;;;;;;;;7334609;19;155157;-14
2022/03/03 18:44:45;;;;;;;6.65;3.75;;;;;;;;;;7334689;19;153539;-14
2022/03/03 18:47:17;;;;;;;7.72;4.28;;;;;;;;;;7333004;19;161761;-15
2022/03/03 18:49:48;;;;;;;8.55;4.00;;;;;;;;;;7334091;19;162382;-14
2022/03/03 18:52:19;;;;;;;8.00;4.10;;;;;;;;;;7334544;19;154035;-14
2022/03/03 18:54:51;;;;;;;5.30;3.63;;;;;;;;;;7334358;19;153518;-13
2022/03/03 18:57:25;;;;;;;6.65;3.75;;;;;;;;;;7333970;19;161787;-14
2022/03/03 18:59:57;;;;;;;5.60;3.55;;;;;;;;;;7332579;19;162687;-15
2022/03/03 19:02:29;;;;;;;6.73;4.07;;;;;;;;;;7334523;19;154093;-15
2022/03/03 19:05:01;;;;;;;5.53;3.53;;;;;;;;;;7333123;19;153797;-14
2022/03/03 19:07:33;;;;;;;5.25;3.80;;;;;;;;;;7332583;19;161916;-13
2022/03/03 19:10:06;;;;;;;7.97;3.38;;;;;;;;;;7333605;19;162718;-14
2022/03/03 19:12:41;;;;;;;6.68;3.60;;;;;;;;;;7332761;19;154127;-14
2022/03/03 19:15:16;;;;;;;7.78;4.00;;;;;;;;;;7333443;19;153529;-15
2022/03/03 19:17:47;;;;;;;5.80;3.30;;;;;;;;;;7333078;19;161891;-14
2022/03/03 19:20:19;;;;;;;8.50;3.40;;;;;;;;;;7333115;19;162567;-14
2022/03/03 19:22:50;;;;;;;6.30;3.63;;;;;;;;;;7333086;19;154129;-15
2022/03/03 19:25:21;;;;;;;5.57;3.08;;;;;;;;;;7332905;19;153523;-13
2022/03/03 19:27:56;;;;;;;5.93;3.33;;;;;;;;;;7331720;19;161995;-14
2022/03/03 19:30:27;;;;;;;5.45;3.33;;;;;;;;;;7332738;19;162509;-14
2022/03/03 19:35:42;;;;;;;5.90;3.60;;;;;;;;;;7332887;19;153544;-14
2022/03/03 19:38:13;;;;;;;4.47;2.88;;;;;;;;;;7332306;19;161989;-14
2022/03/03 19:40:45;;;;;;;5.45;2.70;;;;;;;;;;7332217;19;162881;-14
2022/03/03 19:43:18;;;;;;;5.50;3.40;;;;;;;;;;7331514;19;154066;-13
2022/03/03 19:45:52;;;;;;;5.20;2.55;;;;;;;;;;7332610;19;153423;-13
2022/03/03 19:48:23;;;;;;;4.72;2.78;;;;;;;;;;7329317;19;162168;-14
2022/03/03 19:50:55;;;;;;;9.23;3.47;;;;;;;;;;7332060;19;162362;-14
2022/03/03 19:53:26;;;;;;;4.22;2.70;;;;;;;;;;7332350;19;154841;-14
2022/03/03 19:55:58;;;;;;;4.85;2.80;;;;;;;;;;7332085;19;153641;-13
2022/03/03 19:58:32;;;;;;;5.50;2.67;;;;;;;;;;7331247;19;161864;-15
2022/03/03 20:01:04;;;;;;;5.00;2.80;;;;;;;;;;7330658;19;162374;-15
2022/03/03 20:03:35;;;;;;;5.25;2.45;;;;;;;;;;7331928;19;154266;-15
2022/03/03 20:06:07;;;;;;;5.53;2.70;;;;;;;;;;7332072;19;153785;-15
2022/03/03 20:11:21;;;;;;;5.50;2.25;;;;;;;;;;7331160;19;162829;-15
2022/03/03 20:13:55;;;;;;;4.03;1.98;;;;;;;;;;7331380;19;153997;-14
2022/03/03 20:16:27;;;;;;;4.95;2.50;;;;;;;;;;7331437;19;153574;-14
2022/03/03 20:18:58;;;;;;;5.13;2.88;;;;;;;;;;7331087;19;161897;-15
2022/03/03 20:21:30;;;;;;;6.00;2.50;;;;;;;;;;7330950;19;162540;-14
2022/03/03 20:24:01;;;;;;;5.78;2.47;;;;;;;;;;7330097;19;154165;-14
2022/03/03 20:26:32;;;;;;;4.40;2.17;;;;;;;;;;7331018;19;153697;-14
2022/03/03 20:29:06;;;;;;;6.45;3.15;;;;;;;;;;7329072;19;161787;-15
2022/03/03 20:31:37;;;;;;;5.85;3.25;;;;;;;;;;7330508;19;162605;-15
2022/03/03 20:34:09;;;;;;;5.03;2.90;;;;;;;;;;7326709;19;154040;-13
2022/03/03 20:36:41;;;;;;;4.40;2.67;;;;;;;;;;7330726;19;153366;-13
2022/03/03 20:39:12;;;;;;;4.32;2.60;;;;;;;;;;7330300;19;161948;-17
2022/03/03 20:41:45;;;;;;;4.43;2.58;;;;;;;;;;7330570;19;162576;-15
2022/03/03 20:44:19;;;;;;;6.10;2.90;;;;;;;;;;7330865;19;154239;-16
2022/03/03 20:46:50;;;;;;;5.78;3.13;;;;;;;;;;7332667;19;153706;-17
2022/03/03 20:49:23;;;;;;;8.18;3.45;;;;;;;;;;7330840;19;161989;-13
2022/03/03 20:51:55;;;;;;;5.78;2.47;;;;;;;;;;7330018;19;162479;-15
2022/03/03 20:54:26;;;;;;;7.78;3.15;;;;;;;;;;7333504;19;154294;-15
2022/03/03 20:57:00;;;;;;;9.63;3.45;;;;;;;;;;7330528;19;153674;-14
2022/03/03 20:59:34;;;;;;;5.22;2.72;;;;;;;;;;7332275;19;162019;-12
2022/03/03 21:02:06;;;;;;;4.82;2.85;;;;;;;;;;7332186;19;162433;-12
2022/03/03 21:04:38;;;;;;;8.43;3.53;;;;;;;;;;7333635;19;154089;-13
2022/03/03 21:07:09;;;;;;;5.30;3.10;;;;;;;;;;7333075;19;153666;-13
2022/03/03 21:09:47;;;;;;;6.95;2.72;;;;;;;;;;7331247;19;161904;-15
2022/03/03 21:12:19;;;;;;;5.38;2.65;;;;;;;;;;7329260;19;162441;-15
2022/03/03 21:14:53;;;;;;;5.75;2.63;;;;;;;;;;7329489;19;154185;-14
2022/03/03 21:17:25;;;;;;;5.25;2.80;;;;;;;;;;7330692;19;153584;-15
2022/03/03 21:19:57;;;;;;;8.13;2.67;;;;;;;;;;7331320;19;161937;-14
2022/03/03 21:22:28;;;;;;;6.45;3.08;;;;;;;;;;7331501;19;162599;-13
2022/03/03 21:25:01;;;;;;;5.40;2.33;;;;;;;;;;7332423;19;154017;-14
2022/03/03 21:27:33;;;;;;;3.85;2.58;;;;;;;;;;7332021;19;153637;-14
2022/03/03 21:30:09;;;;;;;6.68;2.75;;;;;;;;;;7329564;19;161952;-13
2022/03/03 21:32:41;;;;;;;6.40;2.22;;;;;;;;;;7330865;19;162355;-14
2022/03/03 21:35:13;;;;;;;5.75;2.35;;;;;;;;;;7329842;19;154020;-15
2022/03/03 21:37:44;;;;;;;3.65;2.30;;;;;;;;;;7332094;19;153534;-15
2022/03/03 21:40:15;;;;;;;4.75;2.60;;;;;;;;;;7331911;19;161861;-15
2022/03/03 21:42:47;;;;;;;4.55;2.60;;;;;;;;;;7332009;19;162503;-15
2022/03/03 21:45:21;;;;;;;6.85;2.58;;;;;;;;;;7333501;19;154119;-16
2022/03/03 21:47:52;;;;;;;5.22;2.60;;;;;;;;;;7338633;19;153709;-14
2022/03/03 21:50:25;;;;;;;5.82;2.20;;;;;;;;;;7336182;19;161888;-15
2022/03/03 21:52:57;;;;;;;4.32;2.33;;;;;;;;;;7338670;19;162480;-15
2022/03/03 21:55:29;;;;;;;3.83;2.23;;;;;;;;;;7338448;19;154197;-13
2022/03/03 21:58:03;;;;;;;4.35;2.22;;;;;;;;;;7339115;19;153574;-15
2022/03/03 22:00:38;;;;;;;4.25;1.92;;;;;;;;;;7338211;19;161995;-14
2022/03/03 22:03:10;;;;;;;2.97;1.92;;;;;;;;;;7338277;19;162421;-15
2022/03/03 22:05:41;;;;;;;5.35;2.72;;;;;;;;;;7338804;19;154039;-16
2022/03/03 22:08:13;;;;;;;2.85;1.80;;;;;;;;;;7338600;19;153513;-14
2022/03/03 22:10:48;;;;;;;4.20;2.10;;;;;;;;;;7333708;19;162128;-20
2022/03/03 22:13:20;;;;;;;4.47;2.40;;;;;;;;;;7338005;19;162336;-13
2022/03/03 22:15:54;;;;;;;3.33;1.83;;;;;;;;;;7338340;19;154050;-14
2022/03/03 22:18:26;;;;;;;3.40;2.20;;;;;;;;;;7337357;19;153783;-13
2022/03/03 22:20:59;;;;;;;3.28;2.15;;;;;;;;;;7336657;19;161818;-14
2022/03/03 22:23:31;;;;;;;4.35;1.95;;;;;;;;;;7334147;19;162408;-14
2022/03/03 22:26:02;;;;;;;3.30;2.30;;;;;;;;;;7337505;19;153953;-14
2022/03/03 22:28:33;;;;;;;3.92;2.20;;;;;;;;;;7331406;19;153589;-16
2022/03/03 22:31:08;;;;;;;2.55;2.08;;;;;;;;;;7322456;19;162971;-14
2022/03/03 22:33:39;;;;;;;4.68;2.13;;;;;;;;;;7326135;19;162523;-14
2022/03/03 22:36:11;;;;;;;3.83;1.88;;;;;;;;;;7327295;19;154309;-15
2022/03/03 22:38:42;;;;;;;3.40;2.00;;;;;;;;;;7329006;19;153699;-15
2022/03/03 22:41:14;;;;;;;4.38;2.40;;;;;;;;;;7328640;19;162888;-19
2022/03/03 22:43:47;;;;;;;3.08;2.10;;;;;;;;;;7325181;19;162371;-15
2022/03/03 22:46:20;;;;;;;2.40;2.20;;;;;;;;;;7325471;19;154590;-15
2022/03/03 22:48:52;;;;;;;4.60;1.90;;;;;;;;;;7325165;19;154625;-15
2022/03/03 22:54:07;;;;;;;3.97;2.45;;;;;;;;;;7324719;19;162405;-14
2022/03/03 22:56:38;;;;;;;3.53;2.00;;;;;;;;;;7324465;19;154026;-15
2022/03/03 22:59:10;;;;;;;2.63;1.80;;;;;;;;;;7326181;19;153574;-14
2022/03/03 23:01:45;;;;;;;3.28;1.88;;;;;;;;;;7323885;19;163643;-16
2022/03/03 23:09:43;;;;;;;2.17;1.70;;;;;;;;;;7321972;19;153529;-12
2022/03/03 23:12:16;;;;;;;2.33;1.70;;;;;;;;;;7327278;19;161841;-16
2022/03/03 23:14:47;;;;;;;3.67;1.83;;;;;;;;;;7332940;19;162439;-15
2022/03/03 23:17:22;;;;;;;4.18;2.40;;;;;;;;;;7331979;19;153966;-15
2022/03/03 23:19:54;;;;;;;5.75;1.70;;;;;;;;;;7333176;19;153584;-12
2022/03/03 23:22:25;;;;;;;3.80;1.98;;;;;;;;;;7332804;19;161856;-13
2022/03/03 23:24:57;;;;;;;2.25;1.70;;;;;;;;;;7331491;19;162347;-14
2022/03/03 23:27:29;;;;;;;3.72;1.80;;;;;;;;;;7333010;19;153998;-15
2022/03/03 23:30:00;;;;;;;3.45;1.70;;;;;;;;;;7332247;19;153722;-13
2022/03/03 23:32:35;;;;;;;2.38;1.60;;;;;;;;;;7333182;19;161808;-13
2022/03/03 23:35:07;;;;;;;2.85;1.83;;;;;;;;;;7329949;19;162619;-14
2022/03/03 23:37:39;;;;;;;1.80;1.60;;;;;;;;;;7332814;19;154005;-14
2022/03/03 23:40:11;;;;;;;3.10;1.70;;;;;;;;;;7332480;19;153521;-14
2022/03/03 23:42:43;;;;;;;3.57;1.90;;;;;;;;;;7330994;19;161896;-13
2022/03/03 23:45:14;;;;;;;3.42;1.80;;;;;;;;;;7331890;19;162583;-14
2022/03/03 23:47:48;;;;;;;3.33;1.50;;;;;;;;;;7333783;19;154131;-13
2022/03/03 23:50:19;;;;;;;2.45;1.33;;;;;;;;;;7331457;19;153654;-13
